sensor_id;sensor_type;location;lat;lon;timestamp;temperature;humidity
15717;DHT22;7960;50.908;4.204;2022-09-09T00:00:22;15.50;99.90
15717;DHT22;7960;50.908;4.204;2022-09-09T00:02:59;15.40;99.90
15717;DHT22;7960;50.908;4.204;2022-09-09T00:05:32;15.40;99.90
15717;DHT22;7960;50.908;4.204;2022-09-09T00:08:04;15.40;99.90
15717;DHT22;7960;50.908;4.204;2022-09-09T00:10:33;15.70;99.90
15717;DHT22;7960;50.908;4.204;2022-09-09T00:13:08;15.70;99.90
15717;DHT22;7960;50.908;4.204;2022-09-09T00:15:40;15.50;99.90
15717;DHT22;7960;50.908;4.204;2022-09-09T00:18:17;15.50;99.90
15717;DHT22;7960;50.908;4.204;2022-09-09T00:20:52;15.60;99.90
15717;DHT22;7960;50.908;4.204;2022-09-09T00:23:28;15.50;99.90
15717;DHT22;7960;50.908;4.204;2022-09-09T00:26:02;15.50;99.90
15717;DHT22;7960;50.908;4.204;2022-09-09T00:28:31;15.40;99.90
15717;DHT22;7960;50.908;4.204;2022-09-09T00:31:04;15.10;99.90
15717;DHT22;7960;50.908;4.204;2022-09-09T00:33:35;15.20;99.90
15717;DHT22;7960;50.908;4.204;2022-09-09T00:36:02;15.30;99.90
15717;DHT22;7960;50.908;4.204;2022-09-09T00:38:35;15.40;99.90
15717;DHT22;7960;50.908;4.204;2022-09-09T00:41:07;15.40;99.90
15717;DHT22;7960;50.908;4.204;2022-09-09T00:43:37;15.60;99.90
15717;DHT22;7960;50.908;4.204;2022-09-09T00:46:37;15.50;99.90
15717;DHT22;7960;50.908;4.204;2022-09-09T00:49:15;15.60;99.90
15717;DHT22;7960;50.908;4.204;2022-09-09T00:51:50;15.50;99.90
15717;DHT22;7960;50.908;4.204;2022-09-09T00:54:46;15.30;99.90
15717;DHT22;7960;50.908;4.204;2022-09-09T00:57:24;15.10;99.90
15717;DHT22;7960;50.908;4.204;2022-09-09T01:02:44;15.30;99.90
15717;DHT22;7960;50.908;4.204;2022-09-09T01:05:20;15.10;99.90
15717;DHT22;7960;50.908;4.204;2022-09-09T01:07:49;15.10;99.90
15717;DHT22;7960;50.908;4.204;2022-09-09T01:10:27;15.00;99.90
15717;DHT22;7960;50.908;4.204;2022-09-09T01:12:58;15.10;99.90
15717;DHT22;7960;50.908;4.204;2022-09-09T01:15:30;15.20;99.90
15717;DHT22;7960;50.908;4.204;2022-09-09T01:18:01;15.40;99.90
15717;DHT22;7960;50.908;4.204;2022-09-09T01:20:34;15.50;99.90
15717;DHT22;7960;50.908;4.204;2022-09-09T01:23:32;15.30;99.90
15717;DHT22;7960;50.908;4.204;2022-09-09T01:26:13;15.10;99.90
15717;DHT22;7960;50.908;4.204;2022-09-09T01:28:43;15.10;99.90
15717;DHT22;7960;50.908;4.204;2022-09-09T01:31:14;15.10;99.90
15717;DHT22;7960;50.908;4.204;2022-09-09T01:33:41;15.00;99.90
15717;DHT22;7960;50.908;4.204;2022-09-09T01:36:11;14.90;99.90
15717;DHT22;7960;50.908;4.204;2022-09-09T01:38:39;15.00;99.90
15717;DHT22;7960;50.908;4.204;2022-09-09T01:41:08;15.00;99.90
15717;DHT22;7960;50.908;4.204;2022-09-09T01:43:34;15.00;99.90
15717;DHT22;7960;50.908;4.204;2022-09-09T01:46:02;14.90;99.90
15717;DHT22;7960;50.908;4.204;2022-09-09T01:48:29;14.90;99.90
15717;DHT22;7960;50.908;4.204;2022-09-09T01:50:56;14.90;99.90
15717;DHT22;7960;50.908;4.204;2022-09-09T01:53:23;15.10;99.90
15717;DHT22;7960;50.908;4.204;2022-09-09T01:56:00;15.00;99.90
15717;DHT22;7960;50.908;4.204;2022-09-09T01:58:36;15.10;99.90
15717;DHT22;7960;50.908;4.204;2022-09-09T02:01:10;15.10;99.90
15717;DHT22;7960;50.908;4.204;2022-09-09T02:03:44;15.20;99.90
15717;DHT22;7960;50.908;4.204;2022-09-09T02:06:22;15.20;99.90
15717;DHT22;7960;50.908;4.204;2022-09-09T02:08:55;15.20;99.90
15717;DHT22;7960;50.908;4.204;2022-09-09T02:11:23;15.20;99.90
15717;DHT22;7960;50.908;4.204;2022-09-09T02:13:54;15.30;99.90
15717;DHT22;7960;50.908;4.204;2022-09-09T02:16:26;15.40;99.90
15717;DHT22;7960;50.908;4.204;2022-09-09T02:18:57;15.20;99.90
15717;DHT22;7960;50.908;4.204;2022-09-09T02:21:28;15.30;99.90
15717;DHT22;7960;50.908;4.204;2022-09-09T02:23:57;15.40;99.90
15717;DHT22;7960;50.908;4.204;2022-09-09T02:26:25;15.50;99.90
15717;DHT22;7960;50.908;4.204;2022-09-09T02:28:55;15.40;99.90
15717;DHT22;7960;50.908;4.204;2022-09-09T02:31:24;15.30;99.90
15717;DHT22;7960;50.908;4.204;2022-09-09T02:33:54;15.40;99.90
15717;DHT22;7960;50.908;4.204;2022-09-09T02:36:23;15.50;99.90
15717;DHT22;7960;50.908;4.204;2022-09-09T02:38:51;15.40;99.90
15717;DHT22;7960;50.908;4.204;2022-09-09T02:41:20;15.40;99.90
15717;DHT22;7960;50.908;4.204;2022-09-09T02:43:50;15.30;99.90
15717;DHT22;7960;50.908;4.204;2022-09-09T02:46:27;15.30;99.90
15717;DHT22;7960;50.908;4.204;2022-09-09T02:49:00;15.30;99.90
15717;DHT22;7960;50.908;4.204;2022-09-09T02:51:35;15.20;99.90
15717;DHT22;7960;50.908;4.204;2022-09-09T02:54:10;15.10;99.90
15717;DHT22;7960;50.908;4.204;2022-09-09T02:56:42;15.30;99.90
15717;DHT22;7960;50.908;4.204;2022-09-09T02:59:10;15.20;99.90
15717;DHT22;7960;50.908;4.204;2022-09-09T03:01:38;15.20;99.90
15717;DHT22;7960;50.908;4.204;2022-09-09T03:04:06;15.10;99.90
15717;DHT22;7960;50.908;4.204;2022-09-09T03:06:33;15.20;99.90
15717;DHT22;7960;50.908;4.204;2022-09-09T03:09:01;15.30;99.90
15717;DHT22;7960;50.908;4.204;2022-09-09T03:11:28;15.30;99.90
15717;DHT22;7960;50.908;4.204;2022-09-09T03:13:55;15.20;99.90
15717;DHT22;7960;50.908;4.204;2022-09-09T03:16:22;15.20;99.90
15717;DHT22;7960;50.908;4.204;2022-09-09T03:18:51;15.30;99.90
15717;DHT22;7960;50.908;4.204;2022-09-09T03:21:17;15.40;99.90
15717;DHT22;7960;50.908;4.204;2022-09-09T03:23:44;15.40;99.90
15717;DHT22;7960;50.908;4.204;2022-09-09T03:26:11;15.40;99.90
15717;DHT22;7960;50.908;4.204;2022-09-09T03:28:40;15.40;99.90
15717;DHT22;7960;50.908;4.204;2022-09-09T03:31:07;15.50;99.90
15717;DHT22;7960;50.908;4.204;2022-09-09T03:33:36;15.40;99.90
15717;DHT22;7960;50.908;4.204;2022-09-09T03:36:05;15.20;99.90
15717;DHT22;7960;50.908;4.204;2022-09-09T03:38:32;15.30;99.90
15717;DHT22;7960;50.908;4.204;2022-09-09T03:41:00;15.30;99.90
15717;DHT22;7960;50.908;4.204;2022-09-09T03:43:28;15.40;99.90
15717;DHT22;7960;50.908;4.204;2022-09-09T03:45:55;15.10;99.90
15717;DHT22;7960;50.908;4.204;2022-09-09T03:48:23;15.20;99.90
15717;DHT22;7960;50.908;4.204;2022-09-09T03:50:52;15.20;99.90
15717;DHT22;7960;50.908;4.204;2022-09-09T03:53:22;15.20;99.90
15717;DHT22;7960;50.908;4.204;2022-09-09T03:55:51;15.20;99.90
15717;DHT22;7960;50.908;4.204;2022-09-09T03:58:20;15.40;99.90
15717;DHT22;7960;50.908;4.204;2022-09-09T04:00:54;15.40;99.90
15717;DHT22;7960;50.908;4.204;2022-09-09T04:03:21;15.20;99.90
15717;DHT22;7960;50.908;4.204;2022-09-09T04:05:50;15.30;99.90
15717;DHT22;7960;50.908;4.204;2022-09-09T04:08:17;15.40;99.90
15717;DHT22;7960;50.908;4.204;2022-09-09T04:10:46;15.20;99.90
15717;DHT22;7960;50.908;4.204;2022-09-09T04:13:14;15.30;99.90
15717;DHT22;7960;50.908;4.204;2022-09-09T04:15:41;15.30;99.90
15717;DHT22;7960;50.908;4.204;2022-09-09T04:18:08;15.30;99.90
15717;DHT22;7960;50.908;4.204;2022-09-09T04:20:35;15.30;99.90
15717;DHT22;7960;50.908;4.204;2022-09-09T04:23:02;15.30;99.90
15717;DHT22;7960;50.908;4.204;2022-09-09T04:25:29;15.20;99.90
15717;DHT22;7960;50.908;4.204;2022-09-09T04:27:57;15.20;99.90
15717;DHT22;7960;50.908;4.204;2022-09-09T04:30:25;15.10;99.90
15717;DHT22;7960;50.908;4.204;2022-09-09T04:32:52;15.20;99.90
15717;DHT22;7960;50.908;4.204;2022-09-09T04:35:19;15.20;99.90
15717;DHT22;7960;50.908;4.204;2022-09-09T04:37:46;15.20;99.90
15717;DHT22;7960;50.908;4.204;2022-09-09T04:40:14;15.20;99.90
15717;DHT22;7960;50.908;4.204;2022-09-09T04:42:40;15.10;99.90
15717;DHT22;7960;50.908;4.204;2022-09-09T04:45:10;15.20;99.90
15717;DHT22;7960;50.908;4.204;2022-09-09T04:47:39;15.20;99.90
15717;DHT22;7960;50.908;4.204;2022-09-09T04:50:07;15.20;99.90
15717;DHT22;7960;50.908;4.204;2022-09-09T04:52:34;15.10;99.90
15717;DHT22;7960;50.908;4.204;2022-09-09T04:55:01;15.20;99.90
15717;DHT22;7960;50.908;4.204;2022-09-09T04:57:28;15.20;99.90
15717;DHT22;7960;50.908;4.204;2022-09-09T04:59:57;15.20;99.90
15717;DHT22;7960;50.908;4.204;2022-09-09T05:02:26;15.20;99.90
15717;DHT22;7960;50.908;4.204;2022-09-09T05:04:53;15.30;99.90
15717;DHT22;7960;50.908;4.204;2022-09-09T05:07:20;15.20;99.90
15717;DHT22;7960;50.908;4.204;2022-09-09T05:09:47;15.20;99.90
15717;DHT22;7960;50.908;4.204;2022-09-09T05:12:15;15.20;99.90
15717;DHT22;7960;50.908;4.204;2022-09-09T05:14:42;15.30;99.90
15717;DHT22;7960;50.908;4.204;2022-09-09T05:17:10;15.30;99.90
15717;DHT22;7960;50.908;4.204;2022-09-09T05:19:38;15.30;99.90
15717;DHT22;7960;50.908;4.204;2022-09-09T05:22:05;15.40;99.90
15717;DHT22;7960;50.908;4.204;2022-09-09T05:24:33;15.30;99.90
15717;DHT22;7960;50.908;4.204;2022-09-09T05:26:59;15.20;99.90
15717;DHT22;7960;50.908;4.204;2022-09-09T05:29:27;15.30;99.90
15717;DHT22;7960;50.908;4.204;2022-09-09T05:31:54;15.30;99.90
15717;DHT22;7960;50.908;4.204;2022-09-09T05:34:21;15.30;99.90
15717;DHT22;7960;50.908;4.204;2022-09-09T05:36:49;15.30;99.90
15717;DHT22;7960;50.908;4.204;2022-09-09T05:39:17;15.20;99.90
15717;DHT22;7960;50.908;4.204;2022-09-09T05:41:44;15.20;99.90
15717;DHT22;7960;50.908;4.204;2022-09-09T05:44:11;15.40;99.90
15717;DHT22;7960;50.908;4.204;2022-09-09T05:46:39;15.20;99.90
15717;DHT22;7960;50.908;4.204;2022-09-09T05:49:06;15.20;99.90
15717;DHT22;7960;50.908;4.204;2022-09-09T05:51:34;15.30;99.90
15717;DHT22;7960;50.908;4.204;2022-09-09T05:54:02;15.30;99.90
15717;DHT22;7960;50.908;4.204;2022-09-09T05:56:29;15.20;99.90
15717;DHT22;7960;50.908;4.204;2022-09-09T05:58:57;15.20;99.90
15717;DHT22;7960;50.908;4.204;2022-09-09T06:01:26;15.30;99.90
15717;DHT22;7960;50.908;4.204;2022-09-09T06:03:54;15.30;99.90
15717;DHT22;7960;50.908;4.204;2022-09-09T06:06:23;15.40;99.90
15717;DHT22;7960;50.908;4.204;2022-09-09T06:08:52;15.30;99.90
15717;DHT22;7960;50.908;4.204;2022-09-09T06:11:22;15.40;99.90
15717;DHT22;7960;50.908;4.204;2022-09-09T06:13:50;15.50;99.90
15717;DHT22;7960;50.908;4.204;2022-09-09T06:16:21;15.50;99.90
15717;DHT22;7960;50.908;4.204;2022-09-09T06:18:49;15.60;99.90
15717;DHT22;7960;50.908;4.204;2022-09-09T06:21:17;15.50;99.90
15717;DHT22;7960;50.908;4.204;2022-09-09T06:23:44;15.50;99.90
15717;DHT22;7960;50.908;4.204;2022-09-09T06:26:13;15.60;99.90
15717;DHT22;7960;50.908;4.204;2022-09-09T06:28:41;15.70;99.90
15717;DHT22;7960;50.908;4.204;2022-09-09T06:31:10;15.70;99.90
15717;DHT22;7960;50.908;4.204;2022-09-09T06:33:38;15.70;99.90
15717;DHT22;7960;50.908;4.204;2022-09-09T06:36:09;15.80;99.90
15717;DHT22;7960;50.908;4.204;2022-09-09T06:38:38;15.70;99.90
15717;DHT22;7960;50.908;4.204;2022-09-09T06:41:05;15.80;99.90
15717;DHT22;7960;50.908;4.204;2022-09-09T06:43:32;15.70;99.90
15717;DHT22;7960;50.908;4.204;2022-09-09T06:46:04;15.80;99.90
15717;DHT22;7960;50.908;4.204;2022-09-09T06:48:31;15.80;99.90
15717;DHT22;7960;50.908;4.204;2022-09-09T06:51:02;15.90;99.90
15717;DHT22;7960;50.908;4.204;2022-09-09T06:53:29;15.90;99.90
15717;DHT22;7960;50.908;4.204;2022-09-09T06:55:59;15.90;99.90
15717;DHT22;7960;50.908;4.204;2022-09-09T06:58:26;16.00;99.90
15717;DHT22;7960;50.908;4.204;2022-09-09T07:01:03;16.00;99.90
15717;DHT22;7960;50.908;4.204;2022-09-09T07:03:29;15.90;99.90
15717;DHT22;7960;50.908;4.204;2022-09-09T07:05:57;15.90;99.90
15717;DHT22;7960;50.908;4.204;2022-09-09T07:08:24;15.90;99.90
15717;DHT22;7960;50.908;4.204;2022-09-09T07:10:52;16.00;99.90
15717;DHT22;7960;50.908;4.204;2022-09-09T07:13:19;16.00;99.90
15717;DHT22;7960;50.908;4.204;2022-09-09T07:15:49;16.00;99.90
15717;DHT22;7960;50.908;4.204;2022-09-09T07:18:18;16.00;99.90
15717;DHT22;7960;50.908;4.204;2022-09-09T07:20:53;16.00;99.90
15717;DHT22;7960;50.908;4.204;2022-09-09T07:23:20;16.20;99.90
15717;DHT22;7960;50.908;4.204;2022-09-09T07:25:47;16.10;99.90
15717;DHT22;7960;50.908;4.204;2022-09-09T07:28:15;16.10;99.90
15717;DHT22;7960;50.908;4.204;2022-09-09T07:30:43;16.00;99.90
15717;DHT22;7960;50.908;4.204;2022-09-09T07:33:09;16.00;99.90
15717;DHT22;7960;50.908;4.204;2022-09-09T07:35:38;16.10;99.90
15717;DHT22;7960;50.908;4.204;2022-09-09T07:38:05;16.20;99.90
15717;DHT22;7960;50.908;4.204;2022-09-09T07:40:32;16.10;99.90
15717;DHT22;7960;50.908;4.204;2022-09-09T07:42:59;16.10;99.90
15717;DHT22;7960;50.908;4.204;2022-09-09T07:45:27;16.00;99.90
15717;DHT22;7960;50.908;4.204;2022-09-09T07:47:54;16.00;99.90
15717;DHT22;7960;50.908;4.204;2022-09-09T07:50:22;16.10;99.90
15717;DHT22;7960;50.908;4.204;2022-09-09T07:52:51;16.10;99.90
15717;DHT22;7960;50.908;4.204;2022-09-09T07:55:19;16.20;99.90
15717;DHT22;7960;50.908;4.204;2022-09-09T07:57:46;16.20;99.90
15717;DHT22;7960;50.908;4.204;2022-09-09T08:00:14;16.30;99.90
15717;DHT22;7960;50.908;4.204;2022-09-09T08:02:44;16.40;99.90
15717;DHT22;7960;50.908;4.204;2022-09-09T08:05:13;16.40;99.90
15717;DHT22;7960;50.908;4.204;2022-09-09T08:07:40;16.40;99.90
15717;DHT22;7960;50.908;4.204;2022-09-09T08:10:09;16.40;99.90
15717;DHT22;7960;50.908;4.204;2022-09-09T08:12:37;16.40;99.90
15717;DHT22;7960;50.908;4.204;2022-09-09T08:15:05;16.40;99.90
15717;DHT22;7960;50.908;4.204;2022-09-09T08:17:32;16.40;99.90
15717;DHT22;7960;50.908;4.204;2022-09-09T08:19:59;16.40;99.90
15717;DHT22;7960;50.908;4.204;2022-09-09T08:22:30;16.60;99.90
15717;DHT22;7960;50.908;4.204;2022-09-09T08:24:57;16.60;99.90
15717;DHT22;7960;50.908;4.204;2022-09-09T08:27:26;16.60;99.90
15717;DHT22;7960;50.908;4.204;2022-09-09T08:29:52;16.70;99.90
15717;DHT22;7960;50.908;4.204;2022-09-09T08:32:19;16.60;99.90
15717;DHT22;7960;50.908;4.204;2022-09-09T08:34:46;16.60;99.90
15717;DHT22;7960;50.908;4.204;2022-09-09T08:37:15;16.50;99.90
15717;DHT22;7960;50.908;4.204;2022-09-09T08:39:43;16.60;99.90
15717;DHT22;7960;50.908;4.204;2022-09-09T08:42:44;16.50;99.90
15717;DHT22;7960;50.908;4.204;2022-09-09T08:45:25;16.30;99.90
15717;DHT22;7960;50.908;4.204;2022-09-09T08:48:19;16.40;99.90
15717;DHT22;7960;50.908;4.204;2022-09-09T08:50:49;16.30;99.90
15717;DHT22;7960;50.908;4.204;2022-09-09T08:53:19;16.30;99.90
15717;DHT22;7960;50.908;4.204;2022-09-09T08:55:49;16.40;99.90
15717;DHT22;7960;50.908;4.204;2022-09-09T08:58:19;16.40;99.90
15717;DHT22;7960;50.908;4.204;2022-09-09T09:01:02;16.30;99.90
15717;DHT22;7960;50.908;4.204;2022-09-09T09:03:38;16.30;99.90
15717;DHT22;7960;50.908;4.204;2022-09-09T09:06:20;16.30;99.90
15717;DHT22;7960;50.908;4.204;2022-09-09T09:08:55;16.30;99.90
15717;DHT22;7960;50.908;4.204;2022-09-09T09:11:25;16.30;99.90
15717;DHT22;7960;50.908;4.204;2022-09-09T09:13:59;16.40;99.90
15717;DHT22;7960;50.908;4.204;2022-09-09T09:16:33;16.40;99.90
15717;DHT22;7960;50.908;4.204;2022-09-09T09:19:02;16.50;99.90
15717;DHT22;7960;50.908;4.204;2022-09-09T09:21:36;16.40;99.90
15717;DHT22;7960;50.908;4.204;2022-09-09T09:24:07;16.40;99.90
15717;DHT22;7960;50.908;4.204;2022-09-09T09:26:43;16.40;99.90
15717;DHT22;7960;50.908;4.204;2022-09-09T09:29:13;16.40;99.90
15717;DHT22;7960;50.908;4.204;2022-09-09T09:31:44;16.50;99.90
15717;DHT22;7960;50.908;4.204;2022-09-09T09:34:13;16.60;99.90
15717;DHT22;7960;50.908;4.204;2022-09-09T09:36:45;16.70;99.90
15717;DHT22;7960;50.908;4.204;2022-09-09T09:39:23;16.60;99.90
15717;DHT22;7960;50.908;4.204;2022-09-09T09:41:51;16.70;99.90
15717;DHT22;7960;50.908;4.204;2022-09-09T09:44:27;16.70;99.90
15717;DHT22;7960;50.908;4.204;2022-09-09T09:47:06;16.70;99.90
15717;DHT22;7960;50.908;4.204;2022-09-09T09:49:34;16.70;99.90
15717;DHT22;7960;50.908;4.204;2022-09-09T09:52:01;16.70;99.90
15717;DHT22;7960;50.908;4.204;2022-09-09T09:54:30;16.50;99.90
15717;DHT22;7960;50.908;4.204;2022-09-09T09:57:08;16.60;99.90
15717;DHT22;7960;50.908;4.204;2022-09-09T09:59:39;16.60;99.90
15717;DHT22;7960;50.908;4.204;2022-09-09T10:02:14;16.60;99.90
15717;DHT22;7960;50.908;4.204;2022-09-09T10:04:41;16.60;99.90
15717;DHT22;7960;50.908;4.204;2022-09-09T10:07:11;16.50;99.90
15717;DHT22;7960;50.908;4.204;2022-09-09T10:09:39;16.60;99.90
15717;DHT22;7960;50.908;4.204;2022-09-09T10:12:13;16.70;99.90
15717;DHT22;7960;50.908;4.204;2022-09-09T10:14:48;16.80;99.90
15717;DHT22;7960;50.908;4.204;2022-09-09T10:17:25;16.80;99.90
15717;DHT22;7960;50.908;4.204;2022-09-09T10:20:00;16.90;99.90
15717;DHT22;7960;50.908;4.204;2022-09-09T10:22:34;16.90;99.90
15717;DHT22;7960;50.908;4.204;2022-09-09T10:25:20;17.00;99.90
15717;DHT22;7960;50.908;4.204;2022-09-09T10:28:00;17.00;99.90
15717;DHT22;7960;50.908;4.204;2022-09-09T10:30:43;17.20;99.90
15717;DHT22;7960;50.908;4.204;2022-09-09T10:33:21;17.40;99.90
15717;DHT22;7960;50.908;4.204;2022-09-09T10:36:00;17.40;99.90
15717;DHT22;7960;50.908;4.204;2022-09-09T10:38:39;17.40;99.90
15717;DHT22;7960;50.908;4.204;2022-09-09T10:41:15;17.40;99.90
15717;DHT22;7960;50.908;4.204;2022-09-09T10:44:12;17.40;99.90
15717;DHT22;7960;50.908;4.204;2022-09-09T10:46:52;17.50;99.90
15717;DHT22;7960;50.908;4.204;2022-09-09T10:49:34;17.50;99.90
15717;DHT22;7960;50.908;4.204;2022-09-09T10:52:12;17.50;99.90
15717;DHT22;7960;50.908;4.204;2022-09-09T10:54:51;17.40;99.90
15717;DHT22;7960;50.908;4.204;2022-09-09T10:57:28;17.50;99.90
15717;DHT22;7960;50.908;4.204;2022-09-09T11:00:00;17.50;99.90
15717;DHT22;7960;50.908;4.204;2022-09-09T11:02:32;17.60;99.90
15717;DHT22;7960;50.908;4.204;2022-09-09T11:05:04;17.60;99.90
15717;DHT22;7960;50.908;4.204;2022-09-09T11:07:36;17.70;99.90
15717;DHT22;7960;50.908;4.204;2022-09-09T11:10:13;17.80;99.90
15717;DHT22;7960;50.908;4.204;2022-09-09T11:12:43;17.80;99.90
15717;DHT22;7960;50.908;4.204;2022-09-09T11:15:19;17.90;99.90
15717;DHT22;7960;50.908;4.204;2022-09-09T11:17:50;17.90;99.90
15717;DHT22;7960;50.908;4.204;2022-09-09T11:20:20;18.00;99.90
15717;DHT22;7960;50.908;4.204;2022-09-09T11:22:51;18.10;99.90
15717;DHT22;7960;50.908;4.204;2022-09-09T11:25:23;18.20;99.90
15717;DHT22;7960;50.908;4.204;2022-09-09T11:31:04;18.20;99.90
15717;DHT22;7960;50.908;4.204;2022-09-09T11:33:48;18.00;99.90
15717;DHT22;7960;50.908;4.204;2022-09-09T11:36:43;18.00;99.90
15717;DHT22;7960;50.908;4.204;2022-09-09T11:39:36;17.90;99.90
15717;DHT22;7960;50.908;4.204;2022-09-09T11:42:07;17.90;99.90
15717;DHT22;7960;50.908;4.204;2022-09-09T11:44:42;17.90;99.90
15717;DHT22;7960;50.908;4.204;2022-09-09T11:47:21;17.90;99.90
15717;DHT22;7960;50.908;4.204;2022-09-09T11:49:52;17.90;99.90
15717;DHT22;7960;50.908;4.204;2022-09-09T11:52:22;17.90;99.90
15717;DHT22;7960;50.908;4.204;2022-09-09T11:54:51;17.90;99.90
15717;DHT22;7960;50.908;4.204;2022-09-09T11:57:25;17.90;99.90
15717;DHT22;7960;50.908;4.204;2022-09-09T11:59:54;17.90;99.90
15717;DHT22;7960;50.908;4.204;2022-09-09T12:02:23;17.90;99.90
15717;DHT22;7960;50.908;4.204;2022-09-09T12:04:59;18.00;99.90
15717;DHT22;7960;50.908;4.204;2022-09-09T12:07:36;18.10;99.90
15717;DHT22;7960;50.908;4.204;2022-09-09T12:10:20;18.10;99.90
15717;DHT22;7960;50.908;4.204;2022-09-09T12:12:47;18.20;99.90
15717;DHT22;7960;50.908;4.204;2022-09-09T12:15:22;18.20;99.90
15717;DHT22;7960;50.908;4.204;2022-09-09T12:17:50;18.10;99.90
15717;DHT22;7960;50.908;4.204;2022-09-09T12:20:21;18.10;99.90
15717;DHT22;7960;50.908;4.204;2022-09-09T12:23:13;18.10;99.90
15717;DHT22;7960;50.908;4.204;2022-09-09T12:25:56;18.20;99.90
15717;DHT22;7960;50.908;4.204;2022-09-09T12:28:32;18.20;99.90
15717;DHT22;7960;50.908;4.204;2022-09-09T12:31:06;18.40;99.90
15717;DHT22;7960;50.908;4.204;2022-09-09T12:33:35;18.50;99.90
15717;DHT22;7960;50.908;4.204;2022-09-09T12:36:04;18.60;99.90
15717;DHT22;7960;50.908;4.204;2022-09-09T12:38:35;18.60;99.90
15717;DHT22;7960;50.908;4.204;2022-09-09T12:41:03;18.60;99.90
15717;DHT22;7960;50.908;4.204;2022-09-09T12:43:30;18.50;99.90
15717;DHT22;7960;50.908;4.204;2022-09-09T12:45:59;18.50;99.90
15717;DHT22;7960;50.908;4.204;2022-09-09T12:48:31;18.50;99.90
15717;DHT22;7960;50.908;4.204;2022-09-09T12:50:59;18.70;99.90
15717;DHT22;7960;50.908;4.204;2022-09-09T12:53:31;19.20;99.90
15717;DHT22;7960;50.908;4.204;2022-09-09T12:56:01;19.60;99.90
15717;DHT22;7960;50.908;4.204;2022-09-09T12:58:30;19.60;99.90
15717;DHT22;7960;50.908;4.204;2022-09-09T13:01:02;19.30;99.90
15717;DHT22;7960;50.908;4.204;2022-09-09T13:03:31;19.20;99.90
15717;DHT22;7960;50.908;4.204;2022-09-09T13:06:10;19.50;99.90
15717;DHT22;7960;50.908;4.204;2022-09-09T13:08:39;19.50;99.90
15717;DHT22;7960;50.908;4.204;2022-09-09T13:11:10;19.30;99.90
15717;DHT22;7960;50.908;4.204;2022-09-09T13:13:40;19.30;99.90
15717;DHT22;7960;50.908;4.204;2022-09-09T13:16:19;19.40;99.90
15717;DHT22;7960;50.908;4.204;2022-09-09T13:18:46;19.50;99.90
15717;DHT22;7960;50.908;4.204;2022-09-09T13:21:14;19.50;99.90
15717;DHT22;7960;50.908;4.204;2022-09-09T13:23:48;19.40;99.90
15717;DHT22;7960;50.908;4.204;2022-09-09T13:26:24;19.60;99.90
15717;DHT22;7960;50.908;4.204;2022-09-09T13:28:51;19.80;99.90
15717;DHT22;7960;50.908;4.204;2022-09-09T13:31:24;20.00;99.90
15717;DHT22;7960;50.908;4.204;2022-09-09T13:33:54;20.00;99.90
15717;DHT22;7960;50.908;4.204;2022-09-09T13:36:31;20.20;99.90
15717;DHT22;7960;50.908;4.204;2022-09-09T13:39:03;20.60;99.90
15717;DHT22;7960;50.908;4.204;2022-09-09T13:41:33;20.40;99.90
15717;DHT22;7960;50.908;4.204;2022-09-09T13:44:02;20.30;99.90
15717;DHT22;7960;50.908;4.204;2022-09-09T13:46:34;20.20;99.90
15717;DHT22;7960;50.908;4.204;2022-09-09T13:49:18;19.90;99.90
15717;DHT22;7960;50.908;4.204;2022-09-09T13:51:49;19.70;99.90
15717;DHT22;7960;50.908;4.204;2022-09-09T13:54:20;19.60;99.90
15717;DHT22;7960;50.908;4.204;2022-09-09T13:56:48;19.50;99.90
15717;DHT22;7960;50.908;4.204;2022-09-09T13:59:17;19.40;99.90
15717;DHT22;7960;50.908;4.204;2022-09-09T14:01:45;19.50;99.90
15717;DHT22;7960;50.908;4.204;2022-09-09T14:04:14;19.60;99.90
15717;DHT22;7960;50.908;4.204;2022-09-09T14:06:42;19.40;99.90
15717;DHT22;7960;50.908;4.204;2022-09-09T14:09:15;19.40;99.90
15717;DHT22;7960;50.908;4.204;2022-09-09T14:11:45;19.60;99.90
15717;DHT22;7960;50.908;4.204;2022-09-09T14:14:12;19.70;99.90
15717;DHT22;7960;50.908;4.204;2022-09-09T14:16:40;19.50;99.90
15717;DHT22;7960;50.908;4.204;2022-09-09T14:19:08;19.50;99.90
15717;DHT22;7960;50.908;4.204;2022-09-09T14:21:43;20.10;99.90
15717;DHT22;7960;50.908;4.204;2022-09-09T14:24:11;20.90;99.90
15717;DHT22;7960;50.908;4.204;2022-09-09T14:26:39;21.00;99.90
15717;DHT22;7960;50.908;4.204;2022-09-09T14:29:08;20.90;99.90
15717;DHT22;7960;50.908;4.204;2022-09-09T14:31:37;20.60;99.90
15717;DHT22;7960;50.908;4.204;2022-09-09T14:34:05;20.40;99.90
15717;DHT22;7960;50.908;4.204;2022-09-09T14:36:33;20.30;99.90
15717;DHT22;7960;50.908;4.204;2022-09-09T14:39:00;20.80;99.90
15717;DHT22;7960;50.908;4.204;2022-09-09T14:41:29;21.20;99.90
15717;DHT22;7960;50.908;4.204;2022-09-09T14:43:57;21.20;99.90
15717;DHT22;7960;50.908;4.204;2022-09-09T14:46:26;21.00;99.90
15717;DHT22;7960;50.908;4.204;2022-09-09T14:48:54;20.70;99.90
15717;DHT22;7960;50.908;4.204;2022-09-09T14:51:23;20.60;99.90
15717;DHT22;7960;50.908;4.204;2022-09-09T14:53:51;21.00;99.90
15717;DHT22;7960;50.908;4.204;2022-09-09T14:56:21;21.10;99.90
15717;DHT22;7960;50.908;4.204;2022-09-09T14:58:50;21.10;99.90
15717;DHT22;7960;50.908;4.204;2022-09-09T15:01:18;21.10;99.90
15717;DHT22;7960;50.908;4.204;2022-09-09T15:03:51;20.80;99.90
15717;DHT22;7960;50.908;4.204;2022-09-09T15:06:19;20.60;99.90
15717;DHT22;7960;50.908;4.204;2022-09-09T15:08:49;20.40;99.90
15717;DHT22;7960;50.908;4.204;2022-09-09T15:11:16;20.30;99.90
15717;DHT22;7960;50.908;4.204;2022-09-09T15:13:44;20.20;99.90
15717;DHT22;7960;50.908;4.204;2022-09-09T15:16:12;20.20;99.90
15717;DHT22;7960;50.908;4.204;2022-09-09T15:18:41;20.50;99.90
15717;DHT22;7960;50.908;4.204;2022-09-09T15:21:16;20.90;99.90
15717;DHT22;7960;50.908;4.204;2022-09-09T15:24:12;21.40;99.90
15717;DHT22;7960;50.908;4.204;2022-09-09T15:26:41;21.90;99.90
15717;DHT22;7960;50.908;4.204;2022-09-09T15:29:08;21.70;99.90
15717;DHT22;7960;50.908;4.204;2022-09-09T15:31:36;21.50;99.90
15717;DHT22;7960;50.908;4.204;2022-09-09T15:34:04;21.50;99.90
15717;DHT22;7960;50.908;4.204;2022-09-09T15:36:34;21.40;99.90
15717;DHT22;7960;50.908;4.204;2022-09-09T15:39:03;21.50;99.90
15717;DHT22;7960;50.908;4.204;2022-09-09T15:41:31;21.40;99.90
15717;DHT22;7960;50.908;4.204;2022-09-09T15:43:58;21.10;99.90
15717;DHT22;7960;50.908;4.204;2022-09-09T15:46:31;20.80;99.90
15717;DHT22;7960;50.908;4.204;2022-09-09T15:49:06;20.60;99.90
15717;DHT22;7960;50.908;4.204;2022-09-09T15:51:36;20.50;99.90
15717;DHT22;7960;50.908;4.204;2022-09-09T15:54:04;20.40;99.90
15717;DHT22;7960;50.908;4.204;2022-09-09T15:56:31;20.40;99.90
15717;DHT22;7960;50.908;4.204;2022-09-09T15:59:06;20.20;99.90
15717;DHT22;7960;50.908;4.204;2022-09-09T16:01:39;20.00;99.90
15717;DHT22;7960;50.908;4.204;2022-09-09T16:04:10;20.00;99.90
15717;DHT22;7960;50.908;4.204;2022-09-09T16:06:39;19.80;99.90
15717;DHT22;7960;50.908;4.204;2022-09-09T16:09:07;19.70;99.90
15717;DHT22;7960;50.908;4.204;2022-09-09T16:11:38;19.40;99.90
15717;DHT22;7960;50.908;4.204;2022-09-09T16:14:06;19.00;99.90